Bf Esperanza — V2BR8 — position and weather

sailwx.info

Track history (hours):
 
Tides and Currents Weather Stations Pressure Air Temp Water Temp Dewpoint Dewpoint Depression Visibility Wind Speed Wind Dir Waves Ship Positions

Bf Esperanza

Last reported at 2018-Apr-25 08:59 UTC. Time now 2018-Apr-25 08:59 UTC.
Position N 35°47' E 014°50'.

Length 135 m; draft 6.5 m.

Type: Ship. MMSI: 304907000.

Date/timePositionNaut miles runAvg speedWind from/ knotsBaromVisibWave heightAir tempDewpointWater temp
2018-Apr-25 08:59N 35°47' E 014°50'0 0.1
2018-Apr-25 08:29N 35°47' E 014°50'0 0.0
2018-Apr-25 07:59N 35°47' E 014°50'0 0.0
2018-Apr-25 07:29N 35°47' E 014°50'0 0.1
2018-Apr-25 06:59N 35°47' E 014°50'0 0.0
2018-Apr-25 06:29N 35°47' E 014°50'0 0.0
2018-Apr-25 05:59N 35°47' E 014°50'0 0.0
2018-Apr-25 05:29N 35°47' E 014°50'0 0.0
2018-Apr-25 04:59N 35°47' E 014°50'0 0.0
2018-Apr-25 04:29N 35°47' E 014°50'0 0.0
2018-Apr-25 03:59N 35°47' E 014°50'0 0.0
2018-Apr-25 03:29N 35°47' E 014°50'0 0.0
2018-Apr-25 02:59N 35°47' E 014°50'0 0.0
2018-Apr-25 02:29N 35°47' E 014°50'0 0.0
2018-Apr-25 01:59N 35°47' E 014°50'0 0.0
2018-Apr-25 01:29N 35°47' E 014°50'0 0.0
2018-Apr-25 00:59N 35°47' E 014°50'0 0.0
2018-Apr-25 00:26N 35°47' E 014°50'0 0.0
2018-Apr-24 23:59N 35°47' E 014°50'0 0.0
2018-Apr-24 23:29N 35°47' E 014°50'0 0.0
2018-Apr-24 22:59N 35°47' E 014°50'0 0.0
2018-Apr-24 22:29N 35°47' E 014°50'0 0.0
2018-Apr-24 21:59N 35°47' E 014°50'0 0.0
2018-Apr-24 21:30N 35°47' E 014°50'0 0.0
2018-Apr-24 21:00N 35°47' E 014°50'0 0.0
2018-Apr-24 20:30N 35°47' E 014°50'0 0.2
2018-Apr-24 20:00N 35°47' E 014°50'2 4.3
2018-Apr-24 19:30N 35°47' E 014°47'713.5
2018-Apr-24 19:00N 35°46' E 014°39'714.3
2018-Apr-24 18:30N 35°45' E 014°31'714.5
2018-Apr-24 18:00N 35°47' E 014°22'715.0
2018-Apr-24 17:31N 35°51' E 014°14'815.0
2018-Apr-24 17:00N 35°55' E 014°06'714.8
2018-Apr-24 16:30N 35°59' E 013°59'714.9
2018-Apr-24 16:00N 36°03' E 013°51'714.8
2018-Apr-24 15:30N 36°07' E 013°43'714.8
2018-Apr-24 15:00N 36°11' E 013°35'815.4
2018-Apr-24 14:30N 36°15' E 013°27'816.0
2018-Apr-24 14:00N 36°20' E 013°19'815.8
2018-Apr-24 13:30N 36°24' E 013°12'815.8
2018-Apr-24 13:01N 36°29' E 013°04'815.3
2018-Apr-24 12:30N 36°34' E 012°56'714.9
2018-Apr-24 12:00N 36°38' E 012°48'714.8
2018-Apr-24 11:30N 36°42' E 012°41'714.8
2018-Apr-24 11:00N 36°45' E 012°32'815.1
2018-Apr-24 10:30N 36°49' E 012°24'815.1
2018-Apr-24 09:58N 36°52' E 012°15'715.3
2018-Apr-24 09:30N 36°56' E 012°07'815.3
2018-Apr-24 09:00N 37°00' E 011°59'1315.2
2018-Apr-24 08:09N 37°05' E 011°44'27213.9
2018-Apr-23 12:35N 37°15' E 006°03'113.5
2018-Apr-23 12:30N 37°15' E 006°02'1213.9
2018-Apr-23 11:40N 37°14' E 005°47'314.3
2018-Apr-23 11:27N 37°14' E 005°43'614.4
2018-Apr-23 11:00N 37°13' E 005°35'814.2
2018-Apr-23 10:26N 37°12' E 005°25'614.1
2018-Apr-23 10:00N 37°11' E 005°18'714.2
2018-Apr-23 09:30N 37°11' E 005°09'1114.2
2018-Apr-23 08:45N 37°10' E 004°56'414.2
2018-Apr-23 08:30N 37°10' E 004°51'1014.0
2018-Apr-23 07:45N 37°08' E 004°38'414.2
2018-Apr-23 07:29N 37°08' E 004°33'714.6
2018-Apr-23 07:00N 37°08' E 004°24'3614.4
2018-Apr-23 04:31N 37°04' E 003°40'314.0
2018-Apr-23 04:16N 37°04' E 003°35'413.7
2018-Apr-23 04:00N 37°03' E 003°31'713.5
2018-Apr-23 03:30N 37°01' E 003°23'2112.8
2018-Apr-23 01:51N 36°46' E 003°05'  
2018-Apr-18 09:10N 36°14' E 013°29'518.8
2018-Apr-18 08:54N 36°11' E 013°34'613.8
2018-Apr-18 08:28N 36°07' E 013°40'715.6
2018-Apr-18 08:00N 36°03' E 013°47'815.3
2018-Apr-18 07:30N 35°59' E 013°55'815.3
2018-Apr-18 07:00N 35°55' E 014°03'816.0
2018-Apr-18 06:30N 35°51' E 014°12'814.9
2018-Apr-18 05:59N 35°47' E 014°20'1016.3
2018-Apr-18 05:23N 35°46' E 014°32'3 6.6
2018-Apr-18 04:54N 35°49' E 014°33'0 0.5
2018-Apr-18 04:16N 35°49' E 014°33'0 0.0
2018-Apr-18 03:50N 35°49' E 014°33'0 0.0
2018-Apr-18 02:52N 35°49' E 014°33'0 0.0
2018-Apr-18 02:21N 35°49' E 014°33'0 0.0
2018-Apr-18 01:58N 35°49' E 014°33'0 0.0
2018-Apr-18 01:25N 35°49' E 014°33'0 0.0
2018-Apr-18 00:58N 35°49' E 014°33'0 0.0
2018-Apr-17 23:01N 35°49' E 014°33'0 0.1
2018-Apr-17 22:55N 35°49' E 014°33'0 0.0
2018-Apr-17 22:27N 35°49' E 014°33'0 0.0
2018-Apr-17 21:49N 35°49' E 014°33'0 0.0
2018-Apr-17 21:25N 35°49' E 014°33'0 0.0
2018-Apr-17 20:57N 35°49' E 014°33'0 0.0
2018-Apr-17 20:08N 35°49' E 014°33'0 0.0
2018-Apr-17 17:55N 35°49' E 014°33'0 0.0
2018-Apr-17 17:25N 35°49' E 014°33'0 0.0
2018-Apr-17 16:50N 35°49' E 014°33'0 0.0
2018-Apr-17 16:22N 35°49' E 014°33'0 0.0
2018-Apr-17 15:58N 35°49' E 014°33'0 0.0
2018-Apr-17 15:28N 35°49' E 014°33'0 0.0
2018-Apr-17 14:58N 35°49' E 014°33'0 0.0
2018-Apr-17 14:28N 35°49' E 014°33'0 0.0
2018-Apr-17 13:58N 35°49' E 014°33'0 0.0
2018-Apr-17 13:26N 35°49' E 014°33'0 0.0
2018-Apr-17 12:58N 35°49' E 014°33'0 0.0
2018-Apr-17 12:26N 35°49' E 014°33'0 0.0
2018-Apr-17 11:59N 35°49' E 014°33'0 0.0
2018-Apr-17 11:26N 35°49' E 014°33'0 0.0
2018-Apr-17 10:44N 35°49' E 014°33'0 0.0
2018-Apr-17 10:29N 35°49' E 014°33'0 0.0
2018-Apr-17 09:59N 35°49' E 014°33'0 0.0
2018-Apr-17 09:26N 35°49' E 014°33'0 0.0
2018-Apr-17 08:15N 35°49' E 014°33'0 0.0
2018-Apr-17 07:50N 35°49' E 014°33'0 0.0
2018-Apr-17 07:23N 35°49' E 014°33'0 0.0
2018-Apr-17 06:50N 35°49' E 014°33'0 0.0
2018-Apr-17 06:29N 35°49' E 014°33'0 0.0
2018-Apr-17 05:52N 35°49' E 014°33'0 0.0
2018-Apr-17 05:27N 35°49' E 014°33'0 0.0
2018-Apr-17 04:59N 35°49' E 014°33'0 0.0
2018-Apr-17 04:27N 35°49' E 014°33'0 0.0
2018-Apr-17 03:51N 35°49' E 014°33'0 0.0
2018-Apr-17 00:05N 35°49' E 014°33'0 0.0
2018-Apr-16 23:51N 35°49' E 014°33'0 0.0
2018-Apr-16 14:45N 35°49' E 014°33'0 0.3
2018-Apr-16 14:29N 35°49' E 014°33'2 4.1
2018-Apr-16 14:00N 35°48' E 014°35'2 3.8
2018-Apr-16 13:30N 35°47' E 014°37'2 3.8
2018-Apr-16 12:58N 35°47' E 014°39'4 7.8
2018-Apr-16 12:30N 35°47' E 014°44'1 1.0
2018-Apr-16 11:54N 35°47' E 014°44'1 1.3
2018-Apr-16 11:30N 35°48' E 014°44'1 1.2
2018-Apr-16 10:58N 35°48' E 014°44'1 1.1
2018-Apr-16 10:30N 35°49' E 014°43'1 1.6
2018-Apr-16 09:58N 35°49' E 014°42'1 2.2
2018-Apr-16 09:30N 35°49' E 014°41'0 0.3
2018-Apr-16 08:59N 35°49' E 014°41'5 9.1
2018-Apr-16 08:28N 35°50' E 014°47'3 3.0
2018-Apr-16 07:23N 35°51' E 014°50'0 0.1
2018-Apr-16 06:50N 35°51' E 014°50'0 0.0
2018-Apr-16 06:26N 35°51' E 014°50'0 0.1
2018-Apr-16 05:51N 35°51' E 014°50'0 0.0
2018-Apr-16 05:14N 35°51' E 014°50'0 0.1
2018-Apr-16 04:40N 35°51' E 014°50'0 0.3
2018-Apr-16 04:28N 35°51' E 014°50'0 0.1
2018-Apr-16 03:57N 35°51' E 014°50'0 0.0
2018-Apr-16 02:20N 35°51' E 014°50'0 0.0
2018-Apr-15 23:53N 35°51' E 014°50'0 0.1
2018-Apr-15 23:28N 35°51' E 014°50'0 0.0
2018-Apr-15 21:31N 35°51' E 014°50'0 0.4
2018-Apr-15 21:26N 35°51' E 014°50'0 0.0
2018-Apr-15 20:58N 35°51' E 014°50'0 0.0
2018-Apr-15 20:22N 35°51' E 014°50'0 0.0
2018-Apr-15 19:55N 35°51' E 014°50'0 0.1
2018-Apr-15 19:28N 35°51' E 014°50'0 0.0
2018-Apr-15 18:55N 35°51' E 014°50'0 0.1
2018-Apr-15 18:29N 35°51' E 014°50'0 0.0
2018-Apr-15 17:56N 35°51' E 014°50'0 0.1
2018-Apr-15 17:13N 35°51' E 014°50'0 0.0
2018-Apr-15 16:48N 35°51' E 014°50'0 0.0
2018-Apr-15 15:59N 35°51' E 014°50'0 0.0
2018-Apr-15 15:29N 35°51' E 014°50'0 0.1
2018-Apr-15 14:55N 35°51' E 014°50'0 0.0
2018-Apr-15 14:25N 35°51' E 014°50'0 0.0
2018-Apr-15 13:59N 35°51' E 014°50'0 0.1
2018-Apr-15 13:28N 35°51' E 014°50'0 0.1
2018-Apr-15 12:40N 35°51' E 014°50'0 0.2
2018-Apr-15 12:29N 35°51' E 014°50'0 0.3
2018-Apr-15 11:58N 35°51' E 014°50'0 0.1
2018-Apr-15 11:29N 35°51' E 014°50'0 0.0
2018-Apr-15 10:59N 35°51' E 014°50'0 0.0
2018-Apr-15 09:18N 35°51' E 014°50'0 0.1
2018-Apr-15 08:57N 35°51' E 014°50'  
Track history (hours):
 
Tides and Currents Weather Stations Pressure Air Temp Water Temp Dewpoint Dewpoint Depression Visibility Wind Speed Wind Dir Waves Ship Positions

Bf Esperanza

Last reported at 2018-Apr-25 08:59 UTC. Time now 2018-Apr-25 08:59 UTC.
Position N 35°47' E 014°50'.

Length 135 m; draft 6.5 m.

Type: Ship. MMSI: 304907000.

Date/timePositionNaut miles runAvg speedWind from/ knotsBaromVisibWave heightAir tempDewpointWater temp
2018-Apr-25 08:59N 35°47' E 014°50'0 0.1
2018-Apr-25 08:29N 35°47' E 014°50'0 0.0
2018-Apr-25 07:59N 35°47' E 014°50'0 0.0
2018-Apr-25 07:29N 35°47' E 014°50'0 0.1
2018-Apr-25 06:59N 35°47' E 014°50'0 0.0
2018-Apr-25 06:29N 35°47' E 014°50'0 0.0
2018-Apr-25 05:59N 35°47' E 014°50'0 0.0
2018-Apr-25 05:29N 35°47' E 014°50'0 0.0
2018-Apr-25 04:59N 35°47' E 014°50'0 0.0
2018-Apr-25 04:29N 35°47' E 014°50'0 0.0
2018-Apr-25 03:59N 35°47' E 014°50'0 0.0
2018-Apr-25 03:29N 35°47' E 014°50'0 0.0
2018-Apr-25 02:59N 35°47' E 014°50'0 0.0
2018-Apr-25 02:29N 35°47' E 014°50'0 0.0
2018-Apr-25 01:59N 35°47' E 014°50'0 0.0
2018-Apr-25 01:29N 35°47' E 014°50'0 0.0
2018-Apr-25 00:59N 35°47' E 014°50'0 0.0
2018-Apr-25 00:26N 35°47' E 014°50'0 0.0
2018-Apr-24 23:59N 35°47' E 014°50'0 0.0
2018-Apr-24 23:29N 35°47' E 014°50'0 0.0
2018-Apr-24 22:59N 35°47' E 014°50'0 0.0
2018-Apr-24 22:29N 35°47' E 014°50'0 0.0
2018-Apr-24 21:59N 35°47' E 014°50'0 0.0
2018-Apr-24 21:30N 35°47' E 014°50'0 0.0
2018-Apr-24 21:00N 35°47' E 014°50'0 0.0
2018-Apr-24 20:30N 35°47' E 014°50'0 0.2
2018-Apr-24 20:00N 35°47' E 014°50'2 4.3
2018-Apr-24 19:30N 35°47' E 014°47'713.5
2018-Apr-24 19:00N 35°46' E 014°39'714.3
2018-Apr-24 18:30N 35°45' E 014°31'714.5
2018-Apr-24 18:00N 35°47' E 014°22'715.0
2018-Apr-24 17:31N 35°51' E 014°14'815.0
2018-Apr-24 17:00N 35°55' E 014°06'714.8
2018-Apr-24 16:30N 35°59' E 013°59'714.9
2018-Apr-24 16:00N 36°03' E 013°51'714.8
2018-Apr-24 15:30N 36°07' E 013°43'714.8
2018-Apr-24 15:00N 36°11' E 013°35'815.4
2018-Apr-24 14:30N 36°15' E 013°27'816.0
2018-Apr-24 14:00N 36°20' E 013°19'815.8
2018-Apr-24 13:30N 36°24' E 013°12'815.8
2018-Apr-24 13:01N 36°29' E 013°04'815.3
2018-Apr-24 12:30N 36°34' E 012°56'714.9
2018-Apr-24 12:00N 36°38' E 012°48'714.8
2018-Apr-24 11:30N 36°42' E 012°41'714.8
2018-Apr-24 11:00N 36°45' E 012°32'815.1
2018-Apr-24 10:30N 36°49' E 012°24'815.1
2018-Apr-24 09:58N 36°52' E 012°15'715.3
2018-Apr-24 09:30N 36°56' E 012°07'815.3
2018-Apr-24 09:00N 37°00' E 011°59'1315.2
2018-Apr-24 08:09N 37°05' E 011°44'27213.9
2018-Apr-23 12:35N 37°15' E 006°03'113.5
2018-Apr-23 12:30N 37°15' E 006°02'1213.9
2018-Apr-23 11:40N 37°14' E 005°47'314.3
2018-Apr-23 11:27N 37°14' E 005°43'614.4
2018-Apr-23 11:00N 37°13' E 005°35'814.2
2018-Apr-23 10:26N 37°12' E 005°25'614.1
2018-Apr-23 10:00N 37°11' E 005°18'714.2
2018-Apr-23 09:30N 37°11' E 005°09'1114.2
2018-Apr-23 08:45N 37°10' E 004°56'414.2
2018-Apr-23 08:30N 37°10' E 004°51'1014.0
2018-Apr-23 07:45N 37°08' E 004°38'414.2
2018-Apr-23 07:29N 37°08' E 004°33'714.6
2018-Apr-23 07:00N 37°08' E 004°24'3614.4
2018-Apr-23 04:31N 37°04' E 003°40'314.0
2018-Apr-23 04:16N 37°04' E 003°35'413.7
2018-Apr-23 04:00N 37°03' E 003°31'713.5
2018-Apr-23 03:30N 37°01' E 003°23'2112.8
2018-Apr-23 01:51N 36°46' E 003°05'  
2018-Apr-18 09:10N 36°14' E 013°29'518.8
2018-Apr-18 08:54N 36°11' E 013°34'613.8
2018-Apr-18 08:28N 36°07' E 013°40'715.6
2018-Apr-18 08:00N 36°03' E 013°47'815.3
2018-Apr-18 07:30N 35°59' E 013°55'815.3
2018-Apr-18 07:00N 35°55' E 014°03'816.0
2018-Apr-18 06:30N 35°51' E 014°12'814.9
2018-Apr-18 05:59N 35°47' E 014°20'1016.3
2018-Apr-18 05:23N 35°46' E 014°32'3 6.6
2018-Apr-18 04:54N 35°49' E 014°33'0 0.5
2018-Apr-18 04:16N 35°49' E 014°33'0 0.0
2018-Apr-18 03:50N 35°49' E 014°33'0 0.0
2018-Apr-18 02:52N 35°49' E 014°33'0 0.0
2018-Apr-18 02:21N 35°49' E 014°33'0 0.0
2018-Apr-18 01:58N 35°49' E 014°33'0 0.0
2018-Apr-18 01:25N 35°49' E 014°33'0 0.0
2018-Apr-18 00:58N 35°49' E 014°33'0 0.0
2018-Apr-17 23:01N 35°49' E 014°33'0 0.1
2018-Apr-17 22:55N 35°49' E 014°33'0 0.0
2018-Apr-17 22:27N 35°49' E 014°33'0 0.0
2018-Apr-17 21:49N 35°49' E 014°33'0 0.0
2018-Apr-17 21:25N 35°49' E 014°33'0 0.0
2018-Apr-17 20:57N 35°49' E 014°33'0 0.0
2018-Apr-17 20:08N 35°49' E 014°33'0 0.0
2018-Apr-17 17:55N 35°49' E 014°33'0 0.0
2018-Apr-17 17:25N 35°49' E 014°33'0 0.0
2018-Apr-17 16:50N 35°49' E 014°33'0 0.0
2018-Apr-17 16:22N 35°49' E 014°33'0 0.0
2018-Apr-17 15:58N 35°49' E 014°33'0 0.0
2018-Apr-17 15:28N 35°49' E 014°33'0 0.0
2018-Apr-17 14:58N 35°49' E 014°33'0 0.0
2018-Apr-17 14:28N 35°49' E 014°33'0 0.0
2018-Apr-17 13:58N 35°49' E 014°33'0 0.0
2018-Apr-17 13:26N 35°49' E 014°33'0 0.0
2018-Apr-17 12:58N 35°49' E 014°33'0 0.0
2018-Apr-17 12:26N 35°49' E 014°33'0 0.0
2018-Apr-17 11:59N 35°49' E 014°33'0 0.0
2018-Apr-17 11:26N 35°49' E 014°33'0 0.0
2018-Apr-17 10:44N 35°49' E 014°33'0 0.0
2018-Apr-17 10:29N 35°49' E 014°33'0 0.0
2018-Apr-17 09:59N 35°49' E 014°33'0 0.0
2018-Apr-17 09:26N 35°49' E 014°33'0 0.0
2018-Apr-17 08:15N 35°49' E 014°33'0 0.0
2018-Apr-17 07:50N 35°49' E 014°33'0 0.0
2018-Apr-17 07:23N 35°49' E 014°33'0 0.0
2018-Apr-17 06:50N 35°49' E 014°33'0 0.0
2018-Apr-17 06:29N 35°49' E 014°33'0 0.0
2018-Apr-17 05:52N 35°49' E 014°33'0 0.0
2018-Apr-17 05:27N 35°49' E 014°33'0 0.0
2018-Apr-17 04:59N 35°49' E 014°33'0 0.0
2018-Apr-17 04:27N 35°49' E 014°33'0 0.0
2018-Apr-17 03:51N 35°49' E 014°33'0 0.0
2018-Apr-17 00:05N 35°49' E 014°33'0 0.0
2018-Apr-16 23:51N 35°49' E 014°33'0 0.0
2018-Apr-16 14:45N 35°49' E 014°33'0 0.3
2018-Apr-16 14:29N 35°49' E 014°33'2 4.1
2018-Apr-16 14:00N 35°48' E 014°35'2 3.8
2018-Apr-16 13:30N 35°47' E 014°37'2 3.8
2018-Apr-16 12:58N 35°47' E 014°39'4 7.8
2018-Apr-16 12:30N 35°47' E 014°44'1 1.0
2018-Apr-16 11:54N 35°47' E 014°44'1 1.3
2018-Apr-16 11:30N 35°48' E 014°44'1 1.2
2018-Apr-16 10:58N 35°48' E 014°44'1 1.1
2018-Apr-16 10:30N 35°49' E 014°43'1 1.6
2018-Apr-16 09:58N 35°49' E 014°42'1 2.2
2018-Apr-16 09:30N 35°49' E 014°41'0 0.3
2018-Apr-16 08:59N 35°49' E 014°41'5 9.1
2018-Apr-16 08:28N 35°50' E 014°47'3 3.0
2018-Apr-16 07:23N 35°51' E 014°50'0 0.1
2018-Apr-16 06:50N 35°51' E 014°50'0 0.0
2018-Apr-16 06:26N 35°51' E 014°50'0 0.1
2018-Apr-16 05:51N 35°51' E 014°50'0 0.0
2018-Apr-16 05:14N 35°51' E 014°50'0 0.1
2018-Apr-16 04:40N 35°51' E 014°50'0 0.3
2018-Apr-16 04:28N 35°51' E 014°50'0 0.1
2018-Apr-16 03:57N 35°51' E 014°50'0 0.0
2018-Apr-16 02:20N 35°51' E 014°50'0 0.0
2018-Apr-15 23:53N 35°51' E 014°50'0 0.1
2018-Apr-15 23:28N 35°51' E 014°50'0 0.0
2018-Apr-15 21:31N 35°51' E 014°50'0 0.4
2018-Apr-15 21:26N 35°51' E 014°50'0 0.0
2018-Apr-15 20:58N 35°51' E 014°50'0 0.0
2018-Apr-15 20:22N 35°51' E 014°50'0 0.0
2018-Apr-15 19:55N 35°51' E 014°50'0 0.1
2018-Apr-15 19:28N 35°51' E 014°50'0 0.0
2018-Apr-15 18:55N 35°51' E 014°50'0 0.1
2018-Apr-15 18:29N 35°51' E 014°50'0 0.0
2018-Apr-15 17:56N 35°51' E 014°50'0 0.1
2018-Apr-15 17:13N 35°51' E 014°50'0 0.0
2018-Apr-15 16:48N 35°51' E 014°50'0 0.0
2018-Apr-15 15:59N 35°51' E 014°50'0 0.0
2018-Apr-15 15:29N 35°51' E 014°50'0 0.1
2018-Apr-15 14:55N 35°51' E 014°50'0 0.0
2018-Apr-15 14:25N 35°51' E 014°50'0 0.0
2018-Apr-15 13:59N 35°51' E 014°50'0 0.1
2018-Apr-15 13:28N 35°51' E 014°50'0 0.1
2018-Apr-15 12:40N 35°51' E 014°50'0 0.2
2018-Apr-15 12:29N 35°51' E 014°50'0 0.3
2018-Apr-15 11:58N 35°51' E 014°50'0 0.1
2018-Apr-15 11:29N 35°51' E 014°50'0 0.0
2018-Apr-15 10:59N 35°51' E 014°50'0 0.0
2018-Apr-15 09:18N 35°51' E 014°50'0 0.1
2018-Apr-15 08:57N 35°51' E 014°50'  

Dump ship's entire track history